createdAt,value
2022-10-18T00:00:15.086Z,102947.91
2022-10-18T00:02:41.598Z,102891.59
2022-10-18T00:05:08.528Z,102887.25
2022-10-18T00:07:35.018Z,102889.59
2022-10-18T00:10:01.588Z,102891.34
2022-10-18T00:12:28.090Z,102875.97
2022-10-18T00:14:54.603Z,102891.13
2022-10-18T00:17:21.126Z,102883.47
2022-10-18T00:19:48.260Z,102885.28
2022-10-18T00:22:14.700Z,102887.88
2022-10-18T00:24:41.144Z,102905.81
2022-10-18T00:27:07.629Z,102908.41
2022-10-18T00:29:34.108Z,102904.84
2022-10-18T00:32:00.603Z,102905.78
2022-10-18T00:34:27.116Z,102896.97
2022-10-18T00:36:55.164Z,102902.97
2022-10-18T00:39:22.222Z,102903.78
2022-10-18T00:41:49.732Z,102900.75
2022-10-18T00:44:16.137Z,102923.38
2022-10-18T00:46:45.424Z,102918.91
2022-10-18T00:49:19.086Z,102918.00
2022-10-18T00:52:08.506Z,102920.19
2022-10-18T00:54:39.157Z,102924.91
2022-10-18T00:57:06.931Z,102925.28
2022-10-18T00:59:34.506Z,102923.16
2022-10-18T01:02:01.529Z,102922.38
2022-10-18T01:04:28.502Z,102915.91
2022-10-18T01:07:08.362Z,102908.75
2022-10-18T01:09:58.982Z,102905.94
2022-10-18T01:12:28.081Z,102909.28
2022-10-18T01:15:11.288Z,102910.13
2022-10-18T01:17:55.201Z,102905.66
2022-10-18T01:20:36.649Z,102911.94
2022-10-18T01:23:13.563Z,102913.41
2022-10-18T01:26:15.641Z,102913.84
2022-10-18T01:29:12.590Z,102918.00
2022-10-18T01:31:56.451Z,102922.25
2022-10-18T01:34:27.997Z,102920.19
2022-10-18T01:36:57.019Z,102928.31
2022-10-18T01:39:28.837Z,102923.78
2022-10-18T01:41:58.449Z,102927.28
2022-10-18T01:44:27.108Z,102919.72
2022-10-18T01:46:56.139Z,102925.06
2022-10-18T01:49:23.982Z,102922.69
2022-10-18T01:51:50.439Z,102919.34
2022-10-18T01:54:27.388Z,102926.66
2022-10-18T01:56:58.510Z,102929.31
2022-10-18T01:59:38.139Z,102936.75
2022-10-18T02:02:19.117Z,102932.56
2022-10-18T02:04:54.530Z,102935.38
2022-10-18T02:07:42.584Z,102930.00
2022-10-18T02:10:37.075Z,102917.59
2022-10-18T02:13:04.375Z,102920.31
2022-10-18T02:15:35.328Z,102921.34
2022-10-18T02:18:08.537Z,102914.75
2022-10-18T02:20:38.067Z,102920.53
2022-10-18T02:23:08.175Z,102937.22
2022-10-18T02:25:35.568Z,102930.22
2022-10-18T02:28:03.514Z,102940.09
2022-10-18T02:30:59.616Z,102945.53
2022-10-18T02:33:47.689Z,102936.06
2022-10-18T02:36:22.315Z,102936.63
2022-10-18T02:38:55.032Z,102940.44
2022-10-18T02:41:27.118Z,102941.00
2022-10-18T02:43:54.439Z,102938.22
2022-10-18T02:46:21.120Z,102945.63
2022-10-18T02:48:47.751Z,102933.81
2022-10-18T02:51:14.308Z,102934.91
2022-10-18T02:53:40.815Z,102934.81
2022-10-18T02:56:07.651Z,102932.44
2022-10-18T02:58:34.141Z,102935.78
2022-10-18T03:01:00.668Z,102930.34
2022-10-18T03:03:27.161Z,102934.69
2022-10-18T03:05:53.705Z,102934.41
2022-10-18T03:08:20.260Z,102932.06
2022-10-18T03:10:46.914Z,102933.19
2022-10-18T03:13:13.571Z,102939.88
2022-10-18T03:15:40.174Z,102938.50
2022-10-18T03:18:07.107Z,102942.25
2022-10-18T03:20:34.282Z,102942.25
2022-10-18T03:23:00.758Z,102945.59
2022-10-18T03:25:27.243Z,102944.91
2022-10-18T03:27:53.722Z,102946.69
2022-10-18T03:30:20.214Z,102949.34
2022-10-18T03:32:46.679Z,102943.63
2022-10-18T03:35:13.130Z,102944.75
2022-10-18T03:37:39.609Z,102947.69
2022-10-18T03:40:06.851Z,102952.16
2022-10-18T03:42:33.480Z,102950.06
2022-10-18T03:45:00.123Z,102961.38
2022-10-18T03:47:26.597Z,102949.34
2022-10-18T03:49:56.217Z,102961.22
2022-10-18T03:52:23.922Z,102959.84
2022-10-18T03:54:50.530Z,102962.91
2022-10-18T03:57:17.015Z,102954.69
2022-10-18T03:59:43.512Z,102967.50
2022-10-18T04:02:09.980Z,102962.19
2022-10-18T04:04:36.568Z,102964.00
2022-10-18T04:07:03.051Z,102955.34
2022-10-18T04:09:29.491Z,102959.00
2022-10-18T04:11:55.937Z,102962.06
2022-10-18T04:14:22.529Z,102956.34
2022-10-18T04:16:49.002Z,102960.81
2022-10-18T04:19:15.709Z,102953.56
2022-10-18T04:21:42.250Z,102948.53
2022-10-18T04:24:08.708Z,102954.53
2022-10-18T04:26:35.212Z,102954.66
2022-10-18T04:29:01.821Z,102952.97
2022-10-18T04:31:28.374Z,102955.19
2022-10-18T04:33:55.025Z,102951.97
2022-10-18T04:36:21.543Z,102959.13
2022-10-18T04:38:47.983Z,102957.97
2022-10-18T04:41:14.421Z,102968.06
2022-10-18T04:43:40.991Z,102976.44
2022-10-18T04:46:07.456Z,102972.66
2022-10-18T04:48:34.106Z,102966.34
2022-10-18T04:51:00.655Z,102959.25
2022-10-18T04:53:27.165Z,102948.03
2022-10-18T04:55:53.735Z,102948.41
2022-10-18T04:58:20.271Z,102955.22
2022-10-18T05:00:47.798Z,102967.91
2022-10-18T05:03:14.879Z,102967.56
2022-10-18T05:06:00.751Z,102974.19
2022-10-18T05:08:28.883Z,102976.09
2022-10-18T05:10:55.433Z,102977.47
2022-10-18T05:13:21.909Z,102968.66
2022-10-18T05:15:48.385Z,102972.53
2022-10-18T05:18:14.941Z,102976.41
2022-10-18T05:20:41.418Z,102968.31
2022-10-18T05:23:10.804Z,102977.22
2022-10-18T05:25:41.788Z,102983.75
2022-10-18T05:28:15.588Z,102976.06
2022-10-18T05:30:53.941Z,102981.03
2022-10-18T05:33:20.405Z,102981.31
2022-10-18T05:35:46.858Z,102982.94
2022-10-18T05:38:13.313Z,102976.34
2022-10-18T05:40:39.765Z,102983.56
2022-10-18T05:43:06.225Z,102986.72
2022-10-18T05:45:32.709Z,102987.94
2022-10-18T05:47:59.146Z,102991.69
2022-10-18T05:50:25.612Z,102984.16
2022-10-18T05:53:02.690Z,102990.13
2022-10-18T05:55:38.844Z,102988.34
2022-10-18T05:58:05.418Z,102990.66
2022-10-18T06:00:31.919Z,102995.38
2022-10-18T06:03:00.336Z,102986.00
2022-10-18T06:05:27.154Z,102989.28
2022-10-18T06:07:53.706Z,102985.34
2022-10-18T06:10:20.170Z,102986.72
2022-10-18T06:12:46.604Z,103003.63
2022-10-18T06:15:13.072Z,103002.44
2022-10-18T06:17:39.600Z,102988.09
2022-10-18T06:20:07.538Z,103000.66
2022-10-18T06:22:34.163Z,102999.00
2022-10-18T06:25:00.661Z,103001.75
2022-10-18T06:27:27.226Z,103016.63
2022-10-18T06:29:53.755Z,103017.50
2022-10-18T06:32:20.199Z,103024.44
2022-10-18T06:34:46.678Z,103026.97
2022-10-18T06:37:13.130Z,103021.53
2022-10-18T06:39:39.577Z,103015.44
2022-10-18T06:42:06.049Z,103035.72
2022-10-18T06:44:32.511Z,103056.38
2022-10-18T06:46:59.115Z,103060.56
2022-10-18T06:49:25.683Z,103060.84
2022-10-18T06:51:53.680Z,103050.34
2022-10-18T06:54:20.240Z,103053.72
2022-10-18T06:56:46.753Z,103057.81
2022-10-18T06:59:13.660Z,103066.81
2022-10-18T07:01:40.199Z,103061.53
2022-10-18T07:04:06.850Z,103090.72
2022-10-18T07:06:33.380Z,103076.25
2022-10-18T07:09:00.226Z,103087.44
2022-10-18T07:11:27.320Z,103087.63
2022-10-18T07:13:55.476Z,103100.59
2022-10-18T07:16:22.150Z,103102.75
2022-10-18T07:18:50.629Z,103102.25
2022-10-18T07:21:20.023Z,103110.50
2022-10-18T07:23:47.196Z,103114.34
2022-10-18T07:26:29.310Z,103130.53
2022-10-18T07:28:59.124Z,103154.41
2022-10-18T07:31:26.575Z,103122.31
2022-10-18T07:33:53.326Z,103125.16
2022-10-18T07:36:22.100Z,103116.28
2022-10-18T07:38:49.300Z,103143.75
2022-10-18T07:41:15.813Z,103135.94
2022-10-18T07:43:45.713Z,103136.09
2022-10-18T07:46:15.793Z,103143.69
2022-10-18T07:48:42.525Z,103158.06
2022-10-18T07:51:09.926Z,103155.59
2022-10-18T07:53:36.809Z,103146.69
2022-10-18T07:56:11.503Z,103159.59
2022-10-18T07:58:37.991Z,103151.09
2022-10-18T08:01:06.566Z,103164.13
2022-10-18T08:03:34.134Z,103144.59
2022-10-18T08:06:00.771Z,103148.81
2022-10-18T08:08:28.270Z,103166.03
2022-10-18T08:10:55.190Z,103156.13
2022-10-18T08:13:21.633Z,103169.00
2022-10-18T08:15:48.442Z,103170.00
2022-10-18T08:18:15.135Z,103176.00
2022-10-18T08:20:45.588Z,103188.81
2022-10-18T08:23:12.503Z,103192.56
2022-10-18T08:25:39.082Z,103181.22
2022-10-18T08:28:06.555Z,103183.97
2022-10-18T08:30:35.283Z,103202.06
2022-10-18T08:33:02.679Z,103206.91
2022-10-18T08:35:29.159Z,103209.75
2022-10-18T08:37:55.674Z,103207.34
2022-10-18T08:40:22.228Z,103212.25
2022-10-18T08:43:30.224Z,103213.22
2022-10-18T08:45:57.221Z,103204.47
2022-10-18T08:48:34.208Z,103212.84
2022-10-18T08:51:02.971Z,103192.22
2022-10-18T08:53:59.227Z,103211.78
2022-10-18T08:56:25.886Z,103207.00
2022-10-18T08:58:52.353Z,103214.19
2022-10-18T09:01:40.680Z,103221.41
2022-10-18T09:04:27.203Z,103224.59
2022-10-18T09:07:09.016Z,103235.00
2022-10-18T09:10:01.093Z,103233.88
2022-10-18T09:12:49.466Z,103231.91
2022-10-18T09:15:31.581Z,103229.19
2022-10-18T09:18:17.118Z,103225.03
2022-10-18T09:20:46.493Z,103234.16
2022-10-18T09:23:25.594Z,103240.34
2022-10-18T09:25:58.383Z,103235.59
2022-10-18T09:28:39.873Z,103235.00
2022-10-18T09:31:21.261Z,103234.00
2022-10-18T09:34:02.814Z,103241.91
2022-10-18T09:36:37.096Z,103242.84
2022-10-18T09:39:16.659Z,103249.06
2022-10-18T09:41:58.726Z,103250.84
2022-10-18T09:44:31.776Z,103262.41
2022-10-18T09:47:02.984Z,103259.13
2022-10-18T09:49:39.279Z,103286.78
2022-10-18T09:52:09.183Z,103277.44
2022-10-18T09:54:47.249Z,103274.88
2022-10-18T09:57:23.044Z,103271.34
2022-10-18T09:59:50.978Z,103265.72
2022-10-18T10:02:22.606Z,103264.00
2022-10-18T10:04:50.114Z,103271.81
2022-10-18T10:07:19.662Z,103267.09
2022-10-18T10:09:49.120Z,103275.75
2022-10-18T10:12:29.466Z,103287.97
2022-10-18T10:15:10.502Z,103268.03
2022-10-18T10:17:37.701Z,103269.41
2022-10-18T10:20:28.882Z,103261.50
2022-10-18T10:23:06.438Z,103271.28
2022-10-18T10:25:36.100Z,103273.97
2022-10-18T10:28:16.856Z,103282.72
2022-10-18T10:30:43.562Z,103273.13
2022-10-18T10:33:37.733Z,103286.25
2022-10-18T10:36:15.677Z,103273.38
2022-10-18T10:38:42.188Z,103262.41
2022-10-18T10:41:21.061Z,103263.09
2022-10-18T10:43:49.116Z,103271.59
2022-10-18T10:46:19.126Z,103271.06
2022-10-18T10:48:47.826Z,103278.06
2022-10-18T10:51:16.922Z,103273.22
2022-10-18T10:53:51.248Z,103272.34
2022-10-18T10:56:29.596Z,103278.34
2022-10-18T10:59:01.197Z,103270.66
2022-10-18T11:01:31.679Z,103271.91
2022-10-18T11:04:01.002Z,103258.63
2022-10-18T11:06:46.250Z,103261.91
2022-10-18T11:09:25.852Z,103269.44
2022-10-18T11:12:01.635Z,103265.25
2022-10-18T11:14:34.934Z,103267.94
2022-10-18T11:17:40.669Z,103282.84
2022-10-18T11:20:07.093Z,103277.63
2022-10-18T11:22:40.729Z,103284.59
2022-10-18T11:25:13.283Z,103281.31
2022-10-18T11:27:49.954Z,103287.34
2022-10-18T11:30:33.285Z,103255.09
2022-10-18T11:33:18.021Z,103261.41
2022-10-18T11:35:52.429Z,103250.44
2022-10-18T11:38:30.019Z,103249.47
2022-10-18T11:41:11.525Z,103250.88
2022-10-18T11:44:01.663Z,103254.72
2022-10-18T11:46:28.952Z,103252.97
2022-10-18T11:49:11.852Z,103246.44
2022-10-18T11:52:03.073Z,103238.66
2022-10-18T11:54:35.143Z,103244.16
2022-10-18T11:57:38.498Z,103238.75
2022-10-18T12:00:13.947Z,103234.19
2022-10-18T12:03:11.086Z,103236.03
2022-10-18T12:05:39.762Z,103230.78
2022-10-18T12:08:11.528Z,103232.41
2022-10-18T12:10:52.816Z,103240.41
2022-10-18T12:13:46.591Z,103228.38
2022-10-18T12:16:13.946Z,103219.88
2022-10-18T12:21:25.759Z,103207.97
2022-10-18T12:24:01.367Z,103222.06
2022-10-18T12:26:29.744Z,103219.69
2022-10-18T12:29:08.772Z,103216.44
2022-10-18T12:32:03.099Z,103215.34
2022-10-18T12:34:44.007Z,103216.91
2022-10-18T12:38:08.910Z,103205.38
2022-10-18T12:40:41.434Z,103213.44
2022-10-18T12:43:18.918Z,103218.16
2022-10-18T12:45:55.349Z,103206.41
2022-10-18T12:48:27.730Z,103206.50
2022-10-18T12:51:12.665Z,103210.38
2022-10-18T12:53:42.195Z,103217.50
2022-10-18T12:56:34.352Z,103217.81
2022-10-18T12:59:16.016Z,103210.59
2022-10-18T13:01:51.529Z,103207.84
2022-10-18T13:04:33.792Z,103213.88
2022-10-18T13:07:08.006Z,103210.25
2022-10-18T13:09:40.309Z,103209.25
2022-10-18T13:12:09.934Z,103205.75
2022-10-18T13:15:25.844Z,103219.47
2022-10-18T13:18:03.868Z,103204.94
2022-10-18T13:21:02.946Z,103204.09
2022-10-18T13:23:42.526Z,102974.91
2022-10-18T13:26:21.450Z,103309.69
2022-10-18T13:29:09.032Z,103320.94
2022-10-18T13:31:47.647Z,103359.81
2022-10-18T13:34:25.191Z,103373.69
2022-10-18T13:36:59.473Z,103404.84
2022-10-18T13:39:26.927Z,103398.25
2022-10-18T13:41:57.754Z,103399.28
2022-10-18T13:44:39.845Z,103386.19
2022-10-18T13:47:07.065Z,103394.38
2022-10-18T13:49:39.489Z,103400.31
2022-10-18T13:52:40.101Z,103400.09
2022-10-18T13:55:21.381Z,103400.47
2022-10-18T13:58:15.926Z,103398.97
2022-10-18T14:01:19.807Z,103402.00
2022-10-18T14:04:01.248Z,103398.38
2022-10-18T14:06:34.622Z,103395.34
2022-10-18T14:09:26.400Z,103395.13
2022-10-18T14:12:21.651Z,103384.88
2022-10-18T14:15:07.439Z,103377.31
2022-10-18T14:17:44.896Z,103375.75
2022-10-18T14:20:40.059Z,103377.25
2022-10-18T14:23:26.052Z,103390.44
2022-10-18T14:26:05.682Z,103372.91
2022-10-18T14:28:55.102Z,103374.22
2022-10-18T14:31:20.137Z,103377.50
2022-10-18T14:33:57.226Z,103380.72
2022-10-18T14:36:27.383Z,103379.66
2022-10-18T14:38:57.170Z,103361.09
2022-10-18T14:41:28.131Z,103369.31
2022-10-18T14:44:14.756Z,103370.31
2022-10-18T14:46:47.023Z,103362.66
2022-10-18T14:49:14.880Z,103371.75
2022-10-18T14:51:46.398Z,103372.75
2022-10-18T14:54:21.022Z,103365.31
2022-10-18T14:56:48.476Z,103372.72
2022-10-18T14:59:28.162Z,103367.22
2022-10-18T15:01:58.594Z,103377.31
2022-10-18T15:04:32.759Z,103367.00
2022-10-18T15:07:05.402Z,103374.22
2022-10-18T15:09:34.845Z,103366.03
2022-10-18T15:12:05.583Z,103370.25
2022-10-18T15:14:32.915Z,103369.09
2022-10-18T15:17:04.521Z,103359.91
2022-10-18T15:19:42.889Z,103350.72
2022-10-18T15:25:14.864Z,103350.41
2022-10-18T15:27:45.510Z,103352.72
2022-10-18T15:30:39.457Z,103342.66
2022-10-18T15:33:12.711Z,103346.31
2022-10-18T15:35:39.556Z,103353.78
2022-10-18T15:38:21.317Z,103358.41
2022-10-18T15:40:48.588Z,103343.44
2022-10-18T15:43:24.182Z,103356.41
2022-10-18T15:46:03.228Z,103361.34
2022-10-18T15:48:36.094Z,103348.88
2022-10-18T15:51:08.289Z,103361.66
2022-10-18T15:53:41.882Z,103354.69
2022-10-18T15:56:34.281Z,103353.41
2022-10-18T15:59:04.383Z,103349.59
2022-10-18T16:01:38.361Z,103362.16
2022-10-18T16:04:09.075Z,103363.66
2022-10-18T16:06:38.558Z,103357.59
2022-10-18T16:09:05.755Z,103350.13
2022-10-18T16:11:32.371Z,103350.47
2022-10-18T16:14:00.430Z,103345.19
2022-10-18T16:16:29.348Z,103353.94
2022-10-18T16:19:06.209Z,103343.78
2022-10-18T16:21:36.527Z,103353.22
2022-10-18T16:24:03.757Z,103368.09
2022-10-18T16:26:30.487Z,103359.16
2022-10-18T16:28:58.965Z,103354.84
2022-10-18T16:31:28.308Z,103351.91
2022-10-18T16:33:56.052Z,103370.16
2022-10-18T16:36:29.068Z,103363.88
2022-10-18T16:38:56.637Z,103370.06
2022-10-18T16:41:23.373Z,103370.31
2022-10-18T16:43:51.240Z,103378.31
2022-10-18T16:46:21.078Z,103384.72
2022-10-18T16:48:49.714Z,103383.88
2022-10-18T16:51:16.846Z,103388.22
2022-10-18T16:53:43.889Z,103386.22
2022-10-18T16:56:17.643Z,103383.00
2022-10-18T16:58:45.213Z,103380.13
2022-10-18T17:01:16.938Z,103377.41
2022-10-18T17:03:44.033Z,103386.19
2022-10-18T17:06:22.366Z,103390.50
2022-10-18T17:08:50.027Z,103390.19
2022-10-18T17:11:17.911Z,103382.59
2022-10-18T17:13:45.445Z,103385.66
2022-10-18T17:19:01.648Z,103399.00
2022-10-18T17:21:29.140Z,103385.94
2022-10-18T17:24:00.660Z,103407.03
2022-10-18T17:26:29.702Z,103406.56
2022-10-18T17:29:00.232Z,103397.22
2022-10-18T17:31:30.454Z,103404.00
2022-10-18T17:33:58.706Z,103413.06
2022-10-18T17:36:25.779Z,103409.81
2022-10-18T17:38:55.739Z,103413.81
2022-10-18T17:41:22.861Z,103416.16
2022-10-18T17:43:50.030Z,103423.97
2022-10-18T17:46:17.948Z,103417.16
2022-10-18T17:48:44.996Z,103416.81
2022-10-18T17:51:14.311Z,103422.25
2022-10-18T17:53:40.871Z,103418.53
2022-10-18T17:56:07.909Z,103419.66
2022-10-18T17:58:35.342Z,103406.69
2022-10-18T18:01:12.968Z,103413.41
2022-10-18T18:03:40.671Z,103416.56
2022-10-18T18:06:18.724Z,103424.16
2022-10-18T18:08:46.070Z,103423.06
2022-10-18T18:11:13.274Z,103422.00
2022-10-18T18:13:39.936Z,103420.09
2022-10-18T18:16:15.176Z,103429.94
2022-10-18T18:18:42.380Z,103437.41
2022-10-18T18:21:09.094Z,103435.13
2022-10-18T18:23:35.548Z,103431.28
2022-10-18T18:26:02.115Z,103430.94
2022-10-18T18:28:28.818Z,103429.97
2022-10-18T18:30:57.167Z,103424.31
2022-10-18T18:33:23.781Z,103418.06
2022-10-18T18:35:57.487Z,103430.69
2022-10-18T18:38:24.793Z,103424.19
2022-10-18T18:41:06.130Z,103425.03
2022-10-18T18:43:32.973Z,103411.81
2022-10-18T18:46:00.089Z,103418.78
2022-10-18T18:48:28.098Z,103426.81
2022-10-18T18:50:55.036Z,103417.91
2022-10-18T18:53:21.540Z,103416.38
2022-10-18T18:55:49.558Z,103414.34
2022-10-18T18:58:16.634Z,103406.88
2022-10-18T19:00:44.541Z,103410.47
2022-10-18T19:03:11.908Z,103411.53
2022-10-18T19:05:38.517Z,103417.19
2022-10-18T19:08:05.925Z,103416.72
2022-10-18T19:10:32.470Z,103399.00
2022-10-18T19:12:59.092Z,103418.88
2022-10-18T19:15:25.921Z,103414.25
2022-10-18T19:17:52.524Z,103412.22
2022-10-18T19:20:19.035Z,103418.97
2022-10-18T19:22:46.012Z,103419.09
2022-10-18T19:25:13.346Z,103406.81
2022-10-18T19:27:39.868Z,103402.63
2022-10-18T19:30:09.555Z,103405.25
2022-10-18T19:32:36.112Z,103403.91
2022-10-18T19:35:03.249Z,103386.22
2022-10-18T19:37:29.764Z,103390.31
2022-10-18T19:39:56.472Z,103385.97
2022-10-18T19:42:27.505Z,103393.81
2022-10-18T19:44:59.208Z,103395.50
2022-10-18T19:47:25.707Z,103395.13
2022-10-18T19:49:53.851Z,103392.03
2022-10-18T19:52:20.340Z,103396.25
2022-10-18T19:54:48.719Z,103386.84
2022-10-18T19:57:15.355Z,103378.66
2022-10-18T20:02:15.228Z,103367.00
2022-10-18T20:04:41.774Z,103374.59
2022-10-18T20:07:08.860Z,103379.88
2022-10-18T20:09:35.495Z,103387.69
2022-10-18T20:12:02.042Z,103383.25
2022-10-18T20:14:28.514Z,103390.56
2022-10-18T20:16:55.141Z,103383.25
2022-10-18T20:19:21.677Z,103372.06
2022-10-18T20:21:48.135Z,103380.81
2022-10-18T20:24:14.722Z,103396.47
2022-10-18T20:26:43.371Z,103392.13
2022-10-18T20:29:09.923Z,103384.91
2022-10-18T20:31:39.247Z,103395.84
2022-10-18T20:34:11.784Z,103404.16
2022-10-18T20:36:38.660Z,103398.38
2022-10-18T20:39:06.155Z,103399.44
2022-10-18T20:41:35.180Z,103404.94
2022-10-18T20:44:04.387Z,103400.75
2022-10-18T20:46:33.422Z,103407.34
2022-10-18T20:49:00.396Z,103411.88
2022-10-18T20:51:27.955Z,103402.59
2022-10-18T20:53:54.669Z,103391.16
2022-10-18T20:56:23.749Z,103401.59
2022-10-18T20:58:51.831Z,103389.59
2022-10-18T21:01:21.597Z,103388.25
2022-10-18T21:03:49.748Z,103397.88
2022-10-18T21:06:22.677Z,103396.28
2022-10-18T21:09:11.976Z,103395.44
2022-10-18T21:11:40.441Z,103401.81
2022-10-18T21:14:07.969Z,103405.31
2022-10-18T21:16:35.935Z,103398.88
2022-10-18T21:19:07.374Z,103399.91
2022-10-18T21:21:34.449Z,103405.50
2022-10-18T21:24:03.912Z,103396.44
2022-10-18T21:26:33.590Z,103397.38
2022-10-18T21:29:00.497Z,103394.84
2022-10-18T21:31:30.140Z,103398.25
2022-10-18T21:33:59.761Z,103407.31
2022-10-18T21:36:27.852Z,103404.91
2022-10-18T21:38:54.445Z,103412.72
2022-10-18T21:41:21.935Z,103408.41
2022-10-18T21:43:51.249Z,103401.88
2022-10-18T21:46:19.366Z,103402.72
2022-10-18T21:48:50.133Z,103389.97
2022-10-18T21:51:19.661Z,103392.19
2022-10-18T21:53:48.374Z,103386.53
2022-10-18T21:56:17.808Z,103382.75
2022-10-18T21:58:44.972Z,103385.38
2022-10-18T22:01:17.517Z,103386.78
2022-10-18T22:03:45.330Z,103388.06
2022-10-18T22:06:14.622Z,103383.97
2022-10-18T22:08:48.760Z,103384.19
2022-10-18T22:11:16.861Z,103396.00
2022-10-18T22:13:43.890Z,103389.38
2022-10-18T22:16:13.358Z,103395.47
2022-10-18T22:18:40.320Z,103390.66
2022-10-18T22:21:08.962Z,103386.94
2022-10-18T22:23:39.395Z,103381.78
2022-10-18T22:26:09.104Z,103380.72
2022-10-18T22:28:36.070Z,103382.53
2022-10-18T22:31:02.765Z,103386.97
2022-10-18T22:33:29.705Z,103380.72
2022-10-18T22:35:56.286Z,103367.88
2022-10-18T22:38:23.110Z,103374.41
2022-10-18T22:40:49.856Z,103372.41
2022-10-18T22:43:16.285Z,103369.28
2022-10-18T22:45:42.799Z,103364.34
2022-10-18T22:48:09.275Z,103361.31
2022-10-18T22:50:35.702Z,103361.00
2022-10-18T22:53:02.207Z,103355.38
2022-10-18T22:55:28.669Z,103353.69
2022-10-18T22:57:56.461Z,103353.59
2022-10-18T23:00:22.986Z,103349.13
2022-10-18T23:02:49.917Z,103348.19
2022-10-18T23:05:16.513Z,103357.69
2022-10-18T23:07:47.688Z,103356.50
2022-10-18T23:10:14.265Z,103352.41
2022-10-18T23:12:40.753Z,103351.69
2022-10-18T23:15:07.864Z,103347.72
2022-10-18T23:17:34.573Z,103334.38
2022-10-18T23:20:01.222Z,103341.34
2022-10-18T23:22:27.747Z,103343.75
2022-10-18T23:24:54.169Z,103338.44
2022-10-18T23:27:20.607Z,103342.78
2022-10-18T23:29:47.221Z,103360.47
2022-10-18T23:32:13.818Z,103360.09
2022-10-18T23:34:40.239Z,103348.31
2022-10-18T23:37:06.710Z,103355.53
2022-10-18T23:39:33.166Z,103347.59
2022-10-18T23:41:59.629Z,103341.47
2022-10-18T23:44:26.081Z,103358.53
2022-10-18T23:46:52.507Z,103349.25
2022-10-18T23:49:18.980Z,103346.03
2022-10-18T23:51:45.536Z,103345.41
2022-10-18T23:54:12.162Z,103343.13
2022-10-18T23:56:38.618Z,103339.06
2022-10-18T23:59:05.069Z,103344.56
